createdAt,value
2023-05-16T00:00:34.057Z,95516.00
2023-05-16T00:01:34.184Z,95514.00
2023-05-16T00:02:33.405Z,95512.00
2023-05-16T00:03:33.349Z,95506.00
2023-05-16T00:04:33.362Z,95504.00
2023-05-16T00:05:33.239Z,95500.00
2023-05-16T00:06:34.355Z,95500.00
2023-05-16T00:07:33.411Z,95500.00
2023-05-16T00:08:33.441Z,95496.00
2023-05-16T00:09:34.543Z,95496.00
2023-05-16T00:10:34.526Z,95494.00
2023-05-16T00:11:34.530Z,95496.00
2023-05-16T00:12:33.576Z,95494.00
2023-05-16T00:13:33.604Z,95492.00
2023-05-16T00:14:33.639Z,95492.00
2023-05-16T00:15:34.756Z,95490.00
2023-05-16T00:16:34.781Z,95490.00
2023-05-16T00:17:33.815Z,95486.00
2023-05-16T00:18:33.892Z,95486.00
2023-05-16T00:19:34.861Z,95486.00
2023-05-16T00:20:34.900Z,95486.00
2023-05-16T00:21:33.951Z,95488.00
2023-05-16T00:22:35.029Z,95488.00
2023-05-16T00:23:35.055Z,95486.00
2023-05-16T00:24:35.158Z,95486.00
2023-05-16T00:25:35.278Z,95484.00
2023-05-16T00:26:34.281Z,95482.00
2023-05-16T00:27:35.323Z,95480.00
2023-05-16T00:28:35.379Z,95478.00
2023-05-16T00:29:35.341Z,95477.00
2023-05-16T00:30:35.376Z,95477.00
2023-05-16T00:31:35.456Z,95477.00
2023-05-16T00:32:34.521Z,95475.00
2023-05-16T00:33:34.546Z,95471.00
2023-05-16T00:34:34.645Z,95475.00
2023-05-16T00:35:35.673Z,95475.00
2023-05-16T00:36:34.682Z,95473.00
2023-05-16T00:37:35.826Z,95473.00
2023-05-16T00:38:34.821Z,95471.00
2023-05-16T00:39:35.823Z,95471.00
2023-05-16T00:40:35.870Z,95471.00
2023-05-16T00:41:35.936Z,95471.00
2023-05-16T00:42:36.001Z,95471.00
2023-05-16T00:43:36.051Z,95471.00
2023-05-16T00:44:36.055Z,95469.00
2023-05-16T00:45:36.100Z,95471.00
2023-05-16T00:46:35.268Z,95471.00
2023-05-16T00:47:35.262Z,95471.00
2023-05-16T00:48:35.334Z,95469.00
2023-05-16T00:49:35.321Z,95469.00
2023-05-16T00:50:35.402Z,95467.00
2023-05-16T00:51:35.453Z,95467.00
2023-05-16T00:52:36.440Z,95465.00
2023-05-16T00:53:35.499Z,95465.00
2023-05-16T00:54:36.553Z,95465.00
2023-05-16T00:55:35.605Z,95465.00
2023-05-16T00:56:36.694Z,95465.00
2023-05-16T00:57:36.738Z,95465.00
2023-05-16T00:58:35.874Z,95467.00
2023-05-16T00:59:35.955Z,95467.00
2023-05-16T01:00:36.948Z,95467.00
2023-05-16T01:01:36.997Z,95469.00
2023-05-16T01:02:36.973Z,95465.00
2023-05-16T01:03:37.041Z,95469.00
2023-05-16T01:04:36.032Z,95467.00
2023-05-16T01:05:37.079Z,95469.00
2023-05-16T01:06:37.149Z,95469.00
2023-05-16T01:07:37.267Z,95467.00
2023-05-16T01:08:36.309Z,95467.00
2023-05-16T01:09:37.351Z,95469.00
2023-05-16T01:10:37.362Z,95467.00
2023-05-16T01:11:37.508Z,95467.00
2023-05-16T01:12:36.470Z,95465.00
2023-05-16T01:13:37.535Z,95465.00
2023-05-16T01:14:37.590Z,95465.00
2023-05-16T01:15:36.618Z,95465.00
2023-05-16T01:16:37.936Z,95465.00
2023-05-16T01:17:36.667Z,95463.00
2023-05-16T01:18:37.757Z,95463.00
2023-05-16T01:19:36.750Z,95465.00
2023-05-16T01:20:37.784Z,95463.00
2023-05-16T01:21:36.825Z,95463.00
2023-05-16T01:22:37.872Z,95461.00
2023-05-16T01:23:37.988Z,95461.00
2023-05-16T01:24:38.066Z,95459.00
2023-05-16T01:25:37.067Z,95459.00
2023-05-16T01:26:38.111Z,95457.00
2023-05-16T01:27:38.160Z,95457.00
2023-05-16T01:28:38.302Z,95457.00
2023-05-16T01:29:37.235Z,95457.00
2023-05-16T01:30:38.298Z,95457.00
2023-05-16T01:31:37.550Z,95455.00
2023-05-16T01:32:38.422Z,95455.00
2023-05-16T01:33:38.554Z,95455.00
2023-05-16T01:34:38.467Z,95453.00
2023-05-16T01:35:37.524Z,95451.00
2023-05-16T01:36:37.559Z,95451.00
2023-05-16T01:37:38.644Z,95449.00
2023-05-16T01:38:38.869Z,95447.00
2023-05-16T01:39:38.758Z,95447.00
2023-05-16T01:40:38.822Z,95449.00
2023-05-16T01:41:38.884Z,95447.00
2023-05-16T01:42:38.891Z,95451.00
2023-05-16T01:43:37.946Z,95447.00
2023-05-16T01:44:37.945Z,95449.00
2023-05-16T01:45:38.022Z,95443.00
2023-05-16T01:46:38.074Z,95443.00
2023-05-16T01:47:38.112Z,95441.00
2023-05-16T01:48:39.128Z,95441.00
2023-05-16T01:49:39.230Z,95443.00
2023-05-16T01:50:39.287Z,95443.00
2023-05-16T01:51:38.352Z,95445.00
2023-05-16T01:52:39.415Z,95445.00
2023-05-16T01:53:39.511Z,95445.00
2023-05-16T01:54:39.432Z,95443.00
2023-05-16T01:55:39.514Z,95445.00
2023-05-16T01:56:39.605Z,95445.00
2023-05-16T01:57:38.537Z,95445.00
2023-05-16T01:58:39.575Z,95441.00
2023-05-16T01:59:38.615Z,95443.00
2023-05-16T02:00:39.723Z,95445.00
2023-05-16T02:01:38.821Z,95441.00
2023-05-16T02:02:38.829Z,95443.00
2023-05-16T02:03:38.851Z,95443.00
2023-05-16T02:04:39.921Z,95447.00
2023-05-16T02:05:40.027Z,95445.00
2023-05-16T02:06:39.976Z,95445.00
2023-05-16T02:07:39.026Z,95449.00
2023-05-16T02:08:39.088Z,95447.00
2023-05-16T02:09:39.129Z,95449.00
2023-05-16T02:10:39.228Z,95447.00
2023-05-16T02:11:40.364Z,95445.00
2023-05-16T02:12:40.248Z,95445.00
2023-05-16T02:13:40.278Z,95449.00
2023-05-16T02:14:39.323Z,95447.00
2023-05-16T02:15:40.369Z,95447.00
2023-05-16T02:16:40.511Z,95449.00
2023-05-16T02:17:39.521Z,95447.00
2023-05-16T02:18:39.522Z,95447.00
2023-05-16T02:19:39.584Z,95447.00
2023-05-16T02:20:39.658Z,95445.00
2023-05-16T02:21:39.672Z,95447.00
2023-05-16T02:22:39.765Z,95447.00
2023-05-16T02:23:40.857Z,95445.00
2023-05-16T02:24:40.882Z,95443.00
2023-05-16T02:25:39.852Z,95443.00
2023-05-16T02:26:40.935Z,95441.00
2023-05-16T02:27:40.939Z,95443.00
2023-05-16T02:28:40.967Z,95441.00
2023-05-16T02:29:41.044Z,95443.00
2023-05-16T02:30:40.122Z,95441.00
2023-05-16T02:31:40.258Z,95439.00
2023-05-16T02:32:41.379Z,95432.00
2023-05-16T02:33:40.329Z,95430.00
2023-05-16T02:34:41.420Z,95427.00
2023-05-16T02:35:41.388Z,95425.00
2023-05-16T02:36:40.504Z,95424.00
2023-05-16T02:37:41.479Z,95424.00
2023-05-16T02:38:41.488Z,95424.00
2023-05-16T02:39:40.541Z,95424.00
2023-05-16T02:40:40.597Z,95424.00
2023-05-16T02:41:41.694Z,95424.00
2023-05-16T02:42:41.704Z,95422.00
2023-05-16T02:43:40.754Z,95420.00
2023-05-16T02:44:40.838Z,95418.00
2023-05-16T02:45:40.874Z,95418.00
2023-05-16T02:46:42.057Z,95420.00
2023-05-16T02:47:41.998Z,95420.00
2023-05-16T02:48:41.049Z,95424.00
2023-05-16T02:49:41.118Z,95420.00
2023-05-16T02:50:41.122Z,95420.00
2023-05-16T02:51:41.171Z,95422.00
2023-05-16T02:52:42.253Z,95420.00
2023-05-16T02:53:41.282Z,95420.00
2023-05-16T02:54:42.398Z,95420.00
2023-05-16T02:55:41.418Z,95420.00
2023-05-16T02:56:42.472Z,95420.00
2023-05-16T02:57:42.537Z,95422.00
2023-05-16T02:58:41.600Z,95422.00
2023-05-16T02:59:41.657Z,95422.00
2023-05-16T03:00:41.882Z,95424.00
2023-05-16T03:01:41.967Z,95422.00
2023-05-16T03:02:42.936Z,95422.00
2023-05-16T03:03:43.006Z,95424.00
2023-05-16T03:04:41.956Z,95425.00
2023-05-16T03:05:41.994Z,95425.00
2023-05-16T03:06:43.050Z,95422.00
2023-05-16T03:07:43.109Z,95422.00
2023-05-16T03:08:43.209Z,95424.00
2023-05-16T03:09:42.196Z,95422.00
2023-05-16T03:10:42.291Z,95424.00
2023-05-16T03:11:42.320Z,95425.00
2023-05-16T03:12:43.363Z,95424.00
2023-05-16T03:13:43.433Z,95420.00
2023-05-16T03:14:43.491Z,95420.00
2023-05-16T03:15:43.582Z,95422.00
2023-05-16T03:16:42.703Z,95422.00
2023-05-16T03:17:43.771Z,95418.00
2023-05-16T03:18:43.725Z,95418.00
2023-05-16T03:19:43.748Z,95418.00
2023-05-16T03:20:43.845Z,95416.00
2023-05-16T03:21:42.896Z,95416.00
2023-05-16T03:22:43.923Z,95414.00
2023-05-16T03:23:43.995Z,95416.00
2023-05-16T03:24:44.131Z,95416.00
2023-05-16T03:25:44.179Z,95416.00
2023-05-16T03:26:44.438Z,95414.00
2023-05-16T03:27:44.367Z,95416.00
2023-05-16T03:28:44.356Z,95416.00
2023-05-16T03:29:44.367Z,95414.00
2023-05-16T03:30:44.558Z,95414.00
2023-05-16T03:31:43.603Z,95414.00
2023-05-16T03:32:44.603Z,95412.00
2023-05-16T03:33:43.586Z,95412.00
2023-05-16T03:34:43.645Z,95410.00
2023-05-16T03:35:44.726Z,95412.00
2023-05-16T03:36:43.805Z,95410.00
2023-05-16T03:37:44.902Z,95410.00
2023-05-16T03:38:44.848Z,95410.00
2023-05-16T03:39:44.904Z,95412.00
2023-05-16T03:40:44.007Z,95410.00
2023-05-16T03:41:45.024Z,95410.00
2023-05-16T03:42:45.012Z,95410.00
2023-05-16T03:43:44.058Z,95410.00
2023-05-16T03:44:44.128Z,95412.00
2023-05-16T03:45:44.265Z,95412.00
2023-05-16T03:46:45.239Z,95414.00
2023-05-16T03:47:45.333Z,95416.00
2023-05-16T03:48:45.500Z,95414.00
2023-05-16T03:49:45.397Z,95414.00
2023-05-16T03:50:44.481Z,95414.00
2023-05-16T03:51:45.537Z,95406.00
2023-05-16T03:52:45.577Z,95412.00
2023-05-16T03:53:45.632Z,95408.00
2023-05-16T03:54:44.801Z,95408.00
2023-05-16T03:55:48.113Z,95408.00
2023-05-16T03:56:45.760Z,95410.00
2023-05-16T03:57:45.754Z,95408.00
2023-05-16T03:58:45.713Z,95406.00
2023-05-16T03:59:44.697Z,95406.00
2023-05-16T04:00:45.716Z,95404.00
2023-05-16T04:01:45.717Z,95404.00
2023-05-16T04:02:45.742Z,95402.00
2023-05-16T04:03:44.692Z,95402.00
2023-05-16T04:04:45.666Z,95400.00
2023-05-16T04:05:45.753Z,95402.00
2023-05-16T04:06:44.722Z,95402.00
2023-05-16T04:07:45.746Z,95402.00
2023-05-16T04:08:45.723Z,95400.00
2023-05-16T04:09:44.708Z,95402.00
2023-05-16T04:10:45.845Z,95400.00
2023-05-16T04:11:45.628Z,95400.00
2023-05-16T04:12:44.642Z,95404.00
2023-05-16T04:13:44.733Z,95406.00
2023-05-16T04:14:45.596Z,95408.00
2023-05-16T04:15:44.663Z,95406.00
2023-05-16T04:16:45.611Z,95406.00
2023-05-16T04:17:44.605Z,95406.00
2023-05-16T04:18:44.617Z,95404.00
2023-05-16T04:19:45.594Z,95402.00
2023-05-16T04:20:45.632Z,95404.00
2023-05-16T04:21:45.790Z,95402.00
2023-05-16T04:22:44.837Z,95400.00
2023-05-16T04:23:44.835Z,95402.00
2023-05-16T04:24:45.856Z,95404.00
2023-05-16T04:25:45.942Z,95402.00
2023-05-16T04:26:46.008Z,95402.00
2023-05-16T04:27:45.057Z,95406.00
2023-05-16T04:28:45.104Z,95406.00
2023-05-16T04:29:45.216Z,95406.00
2023-05-16T04:30:45.205Z,95406.00
2023-05-16T04:31:45.333Z,95406.00
2023-05-16T04:32:45.380Z,95410.00
2023-05-16T04:33:45.383Z,95410.00
2023-05-16T04:34:46.663Z,95412.00
2023-05-16T04:35:46.681Z,95414.00
2023-05-16T04:36:45.540Z,95416.00
2023-05-16T04:37:45.616Z,95414.00
2023-05-16T04:38:46.681Z,95416.00
2023-05-16T04:39:46.742Z,95422.00
2023-05-16T04:40:46.844Z,95416.00
2023-05-16T04:41:45.872Z,95418.00
2023-05-16T04:42:46.906Z,95416.00
2023-05-16T04:43:45.991Z,95418.00
2023-05-16T04:44:46.049Z,95420.00
2023-05-16T04:45:46.085Z,95418.00
2023-05-16T04:46:47.200Z,95416.00
2023-05-16T04:47:47.192Z,95416.00
2023-05-16T04:48:46.192Z,95422.00
2023-05-16T04:49:47.218Z,95420.00
2023-05-16T04:50:47.307Z,95420.00
2023-05-16T04:51:47.375Z,95422.00
2023-05-16T04:52:48.211Z,95422.00
2023-05-16T04:53:49.421Z,95420.00
2023-05-16T04:54:47.625Z,95420.00
2023-05-16T04:55:47.982Z,95416.00
2023-05-16T04:58:05.497Z,95420.00
2023-05-16T05:00:41.017Z,95420.00
2023-05-16T05:02:59.745Z,95418.00
2023-05-16T05:04:00.837Z,95414.00
2023-05-16T05:05:00.932Z,95412.00
2023-05-16T05:05:59.849Z,95406.00
2023-05-16T05:07:07.409Z,95404.00
2023-05-16T05:07:59.674Z,95404.00
2023-05-16T05:08:59.656Z,95406.00
2023-05-16T05:10:00.647Z,95402.00
2023-05-16T05:10:59.745Z,95404.00
2023-05-16T05:11:59.655Z,95404.00
2023-05-16T05:13:00.627Z,95400.00
2023-05-16T05:13:59.631Z,95406.00
2023-05-16T05:14:59.623Z,95402.00
2023-05-16T05:15:59.604Z,95402.00
2023-05-16T05:17:00.653Z,95402.00
2023-05-16T05:18:00.772Z,95402.00
2023-05-16T05:19:00.708Z,95402.00
2023-05-16T05:20:59.633Z,95402.00
2023-05-16T05:21:59.681Z,95398.00
2023-05-16T05:23:00.738Z,95398.00
2023-05-16T05:23:59.821Z,95398.00
2023-05-16T05:25:00.903Z,95396.00
2023-05-16T05:25:59.938Z,95398.00
2023-05-16T05:27:01.073Z,95396.00
2023-05-16T05:28:01.058Z,95402.00
2023-05-16T05:29:05.462Z,95398.00
2023-05-16T05:30:01.155Z,95398.00
2023-05-16T05:31:01.129Z,95398.00
2023-05-16T05:32:01.161Z,95398.00
2023-05-16T05:33:00.131Z,95396.00
2023-05-16T05:34:01.100Z,95392.00
2023-05-16T05:35:00.085Z,95392.00
2023-05-16T05:36:03.906Z,95396.00
2023-05-16T05:37:01.078Z,95390.00
2023-05-16T05:38:01.067Z,95385.00
2023-05-16T05:39:00.103Z,95386.00
2023-05-16T05:40:01.063Z,95386.00
2023-05-16T05:41:00.031Z,95386.00
2023-05-16T05:42:01.050Z,95390.00
2023-05-16T05:43:01.114Z,95388.00
2023-05-16T05:44:01.044Z,95390.00
2023-05-16T05:45:01.039Z,95388.00
2023-05-16T05:46:01.084Z,95388.00
2023-05-16T05:47:00.019Z,95388.00
2023-05-16T05:48:01.012Z,95388.00
2023-05-16T05:49:00.986Z,95386.00
2023-05-16T05:49:59.985Z,95388.00
2023-05-16T05:50:59.966Z,95388.00
2023-05-16T05:52:00.979Z,95388.00
2023-05-16T05:53:00.420Z,95390.00
2023-05-16T05:54:00.952Z,95392.00
2023-05-16T05:55:00.942Z,95392.00
2023-05-16T05:56:00.940Z,95392.00
2023-05-16T05:56:59.954Z,95394.00
2023-05-16T05:57:59.914Z,95388.00
2023-05-16T05:58:59.942Z,95390.00
2023-05-16T06:00:00.961Z,95388.00
2023-05-16T06:01:00.901Z,95386.00
2023-05-16T06:01:59.967Z,95386.00
2023-05-16T06:03:00.992Z,95386.00
2023-05-16T06:04:02.188Z,95388.00
2023-05-16T06:05:00.926Z,95390.00
2023-05-16T06:05:59.956Z,95390.00
2023-05-16T06:07:00.942Z,95390.00
2023-05-16T06:08:00.936Z,95388.00
2023-05-16T06:08:59.953Z,95388.00
2023-05-16T06:10:02.031Z,95386.00
2023-05-16T06:11:00.978Z,95386.00
2023-05-16T06:12:00.960Z,95385.00
2023-05-16T06:13:00.965Z,95386.00
2023-05-16T06:13:59.941Z,95385.00
2023-05-16T06:15:00.963Z,95385.00
2023-05-16T06:16:00.943Z,95385.00
2023-05-16T06:17:00.932Z,95385.00
2023-05-16T06:17:59.959Z,95385.00
2023-05-16T06:18:59.981Z,95386.00
2023-05-16T06:19:59.889Z,95383.00
2023-05-16T06:21:00.896Z,95386.00
2023-05-16T06:22:00.884Z,95388.00
2023-05-16T06:23:00.898Z,95390.00
2023-05-16T06:24:00.893Z,95388.00
2023-05-16T06:24:59.867Z,95390.00
2023-05-16T06:25:59.851Z,95390.00
2023-05-16T06:27:00.849Z,95394.00
2023-05-16T06:28:00.838Z,95388.00
2023-05-16T06:28:59.830Z,95392.00
2023-05-16T06:29:59.825Z,95394.00
2023-05-16T06:31:00.859Z,95394.00
2023-05-16T06:32:00.923Z,95394.00
2023-05-16T06:33:00.908Z,95392.00
2023-05-16T06:33:59.809Z,95394.00
2023-05-16T06:35:00.796Z,95394.00
2023-05-16T06:36:00.779Z,95392.00
2023-05-16T06:36:59.864Z,95390.00
2023-05-16T06:38:00.764Z,95388.00
2023-05-16T06:38:59.780Z,95390.00
2023-05-16T06:39:59.745Z,95390.00
2023-05-16T06:41:00.773Z,95390.00
2023-05-16T06:41:59.751Z,95390.00
2023-05-16T06:42:59.757Z,95385.00
2023-05-16T06:43:59.753Z,95390.00
2023-05-16T06:44:59.724Z,95388.00
2023-05-16T06:46:00.770Z,95392.00
2023-05-16T06:46:59.801Z,95394.00
2023-05-16T06:47:59.726Z,95392.00
2023-05-16T06:49:00.696Z,95394.00
2023-05-16T06:50:00.690Z,95394.00
2023-05-16T06:51:00.702Z,95394.00
2023-05-16T06:51:59.715Z,95396.00
2023-05-16T06:52:59.936Z,95396.00
2023-05-16T06:54:00.313Z,95396.00
2023-05-16T06:55:00.701Z,95394.00
2023-05-16T06:56:00.662Z,95398.00
2023-05-16T06:57:00.671Z,95396.00
2023-05-16T06:58:00.952Z,95400.00
2023-05-16T06:58:59.647Z,95398.00
2023-05-16T07:00:00.647Z,95396.00
2023-05-16T07:01:00.644Z,95394.00
2023-05-16T07:01:59.613Z,95392.00
2023-05-16T07:02:59.808Z,95392.00
2023-05-16T07:04:00.690Z,95392.00
2023-05-16T07:05:00.596Z,95392.00
2023-05-16T07:06:00.611Z,95388.00
2023-05-16T07:06:59.589Z,95390.00
2023-05-16T07:08:00.583Z,95392.00
2023-05-16T07:09:00.593Z,95390.00
2023-05-16T07:10:00.637Z,95392.00
2023-05-16T07:10:59.704Z,95390.00
2023-05-16T07:12:00.718Z,95392.00
2023-05-16T07:13:00.758Z,95388.00
2023-05-16T07:14:00.817Z,95394.00
2023-05-16T07:14:59.898Z,95396.00
2023-05-16T07:15:59.937Z,95392.00
2023-05-16T07:17:01.186Z,95394.00
2023-05-16T07:18:01.157Z,95392.00
2023-05-16T07:19:01.273Z,95392.00
2023-05-16T07:20:03.561Z,95392.00
2023-05-16T07:21:01.212Z,95390.00
2023-05-16T07:22:00.162Z,95388.00
2023-05-16T07:23:01.159Z,95390.00
2023-05-16T07:24:01.168Z,95388.00
2023-05-16T07:25:00.163Z,95388.00
2023-05-16T07:26:00.145Z,95386.00
2023-05-16T07:27:00.134Z,95386.00
2023-05-16T07:28:00.194Z,95386.00
2023-05-16T07:29:00.152Z,95383.00
2023-05-16T07:30:01.127Z,95385.00
2023-05-16T07:31:01.115Z,95388.00
2023-05-16T07:32:01.198Z,95388.00
2023-05-16T07:33:01.166Z,95392.00
2023-05-16T07:34:01.088Z,95394.00
2023-05-16T07:35:01.105Z,95390.00
2023-05-16T07:36:11.986Z,95392.00
2023-05-16T07:37:01.976Z,95392.00
2023-05-16T07:38:00.059Z,95388.00
2023-05-16T07:39:00.051Z,95388.00
2023-05-16T07:40:01.069Z,95390.00
2023-05-16T07:41:00.048Z,95392.00
2023-05-16T07:42:00.063Z,95392.00
2023-05-16T07:43:01.033Z,95394.00
2023-05-16T07:44:01.021Z,95392.00
2023-05-16T07:45:00.087Z,95392.00
2023-05-16T07:46:00.051Z,95394.00
2023-05-16T07:47:00.007Z,95392.00
2023-05-16T07:48:00.533Z,95392.00
2023-05-16T07:48:59.993Z,95392.00
2023-05-16T07:50:01.027Z,95388.00
2023-05-16T07:51:01.066Z,95390.00
2023-05-16T07:51:59.968Z,95386.00
2023-05-16T07:53:01.471Z,95388.00
2023-05-16T07:54:00.953Z,95385.00
2023-05-16T07:54:59.950Z,95388.00
2023-05-16T07:56:00.333Z,95388.00
2023-05-16T07:57:00.955Z,95388.00
2023-05-16T07:58:00.946Z,95390.00
2023-05-16T07:59:01.032Z,95392.00
2023-05-16T07:59:59.946Z,95390.00
2023-05-16T08:01:00.911Z,95392.00
2023-05-16T08:01:59.994Z,95392.00
2023-05-16T08:02:59.962Z,95392.00
2023-05-16T08:04:00.991Z,95390.00
2023-05-16T08:05:00.981Z,95388.00
2023-05-16T08:06:00.008Z,95388.00
2023-05-16T08:06:59.969Z,95386.00
2023-05-16T08:07:59.972Z,95388.00
2023-05-16T08:09:00.978Z,95386.00
2023-05-16T08:10:00.970Z,95385.00
2023-05-16T08:10:59.998Z,95385.00
2023-05-16T08:12:00.994Z,95385.00
2023-05-16T08:13:01.025Z,95385.00
2023-05-16T08:14:01.025Z,95383.00
2023-05-16T08:15:01.000Z,95383.00
2023-05-16T08:16:00.066Z,95381.00
2023-05-16T08:17:01.014Z,95383.00
2023-05-16T08:18:01.064Z,95385.00
2023-05-16T08:19:00.059Z,95385.00
2023-05-16T08:20:01.005Z,95385.00
2023-05-16T08:21:00.984Z,95385.00
2023-05-16T08:22:01.003Z,95385.00
2023-05-16T08:23:00.042Z,95385.00
2023-05-16T08:23:59.987Z,95385.00
2023-05-16T08:25:00.002Z,95385.00
2023-05-16T08:26:01.033Z,95385.00
2023-05-16T08:27:01.072Z,95385.00
2023-05-16T08:28:01.122Z,95385.00
2023-05-16T08:29:00.143Z,95385.00
2023-05-16T08:30:00.195Z,95385.00
2023-05-16T08:31:00.195Z,95385.00
2023-05-16T08:32:01.268Z,95383.00
2023-05-16T08:33:01.262Z,95381.00
2023-05-16T08:34:00.267Z,95379.00
2023-05-16T08:35:00.307Z,95373.00
2023-05-16T08:36:00.350Z,95371.00
2023-05-16T08:37:01.407Z,95369.00
2023-05-16T08:38:01.491Z,95367.00
2023-05-16T08:39:00.473Z,95369.00
2023-05-16T08:40:00.498Z,95369.00
2023-05-16T08:41:01.535Z,95367.00
2023-05-16T08:42:01.583Z,95361.00
2023-05-16T08:43:02.012Z,95363.00
2023-05-16T08:44:01.602Z,95363.00
2023-05-16T08:45:01.630Z,95361.00
2023-05-16T08:46:01.647Z,95361.00
2023-05-16T08:47:01.763Z,95361.00
2023-05-16T08:48:01.745Z,95361.00
2023-05-16T08:49:01.731Z,95357.00
2023-05-16T08:50:00.737Z,95357.00
2023-05-16T08:51:01.758Z,95359.00
2023-05-16T08:52:01.758Z,95355.00
2023-05-16T08:53:01.786Z,95359.00
2023-05-16T08:54:00.816Z,95359.00
2023-05-16T08:56:00.769Z,95359.00
2023-05-16T08:57:01.763Z,95363.00
2023-05-16T08:58:01.770Z,95363.00
2023-05-16T08:59:02.109Z,95361.00
2023-05-16T09:00:01.734Z,95363.00
2023-05-16T09:01:00.762Z,95363.00
2023-05-16T09:02:00.728Z,95365.00
2023-05-16T09:03:01.775Z,95361.00
2023-05-16T09:04:01.787Z,95365.00
2023-05-16T09:05:00.713Z,95365.00
2023-05-16T09:06:00.696Z,95365.00
2023-05-16T09:07:01.684Z,95363.00
2023-05-16T09:08:00.678Z,95365.00
2023-05-16T09:09:01.681Z,95363.00
2023-05-16T09:10:01.737Z,95363.00
2023-05-16T09:11:01.678Z,95361.00
2023-05-16T09:12:00.661Z,95363.00
2023-05-16T09:13:01.660Z,95363.00
2023-05-16T09:14:01.646Z,95363.00
2023-05-16T09:15:01.623Z,95367.00
2023-05-16T09:16:01.633Z,95365.00
2023-05-16T09:17:00.763Z,95365.00
2023-05-16T09:18:01.716Z,95363.00
2023-05-16T09:19:01.769Z,95363.00
2023-05-16T09:20:00.618Z,95361.00
2023-05-16T09:21:01.591Z,95361.00
2023-05-16T09:22:00.594Z,95361.00
2023-05-16T09:23:01.576Z,95363.00
2023-05-16T09:24:01.580Z,95365.00
2023-05-16T09:25:01.573Z,95367.00
2023-05-16T09:26:01.641Z,95367.00
2023-05-16T09:27:00.559Z,95369.00
2023-05-16T09:28:02.089Z,95373.00
2023-05-16T09:29:00.574Z,95373.00
2023-05-16T09:30:01.532Z,95375.00
2023-05-16T09:31:01.566Z,95375.00
2023-05-16T09:32:01.517Z,95375.00
2023-05-16T09:33:00.658Z,95377.00
2023-05-16T09:34:01.515Z,95383.00
2023-05-16T09:35:01.513Z,95381.00
2023-05-16T09:36:01.522Z,95381.00
2023-05-16T09:37:01.506Z,95385.00
2023-05-16T09:38:00.480Z,95383.00
2023-05-16T09:39:01.467Z,95383.00
2023-05-16T09:40:01.463Z,95383.00
2023-05-16T09:41:01.461Z,95383.00
2023-05-16T09:42:00.478Z,95381.00
2023-05-16T09:43:00.468Z,95381.00
2023-05-16T09:44:00.469Z,95379.00
2023-05-16T09:45:01.445Z,95383.00
2023-05-16T09:46:00.486Z,95383.00
2023-05-16T09:47:01.432Z,95381.00
2023-05-16T09:48:00.454Z,95379.00
2023-05-16T09:49:01.512Z,95379.00
2023-05-16T09:50:00.448Z,95383.00
2023-05-16T09:51:02.342Z,95381.00
2023-05-16T09:52:00.483Z,95383.00
2023-05-16T09:53:00.506Z,95386.00
2023-05-16T09:54:02.010Z,95385.00
2023-05-16T09:55:01.567Z,95388.00
2023-05-16T09:56:00.609Z,95385.00
2023-05-16T09:57:03.208Z,95386.00
2023-05-16T09:58:00.700Z,95383.00
2023-05-16T09:59:01.619Z,95383.00
2023-05-16T10:00:00.639Z,95383.00
2023-05-16T10:01:01.616Z,95381.00
2023-05-16T10:02:01.667Z,95381.00
2023-05-16T10:03:04.825Z,95379.00
2023-05-16T10:04:00.786Z,95381.00
2023-05-16T10:05:01.580Z,95381.00
2023-05-16T10:06:01.599Z,95385.00
2023-05-16T10:07:00.623Z,95381.00
2023-05-16T10:08:00.685Z,95381.00
2023-05-16T10:09:02.904Z,95381.00
2023-05-16T10:10:01.784Z,95381.00
2023-05-16T10:11:01.845Z,95381.00
2023-05-16T10:12:01.890Z,95381.00
2023-05-16T10:13:01.945Z,95385.00
2023-05-16T10:14:02.105Z,95383.00
2023-05-16T10:15:02.094Z,95386.00
2023-05-16T10:16:02.201Z,95383.00
2023-05-16T10:17:02.181Z,95383.00
2023-05-16T10:18:02.329Z,95385.00
2023-05-16T10:19:02.307Z,95383.00
2023-05-16T10:20:02.331Z,95383.00
2023-05-16T10:21:02.375Z,95385.00
2023-05-16T10:22:01.426Z,95383.00
2023-05-16T10:23:02.513Z,95383.00
2023-05-16T10:24:01.559Z,95385.00
2023-05-16T10:25:02.603Z,95383.00
2023-05-16T10:26:02.660Z,95385.00
2023-05-16T10:27:02.713Z,95388.00
2023-05-16T10:28:02.791Z,95385.00
2023-05-16T10:29:01.854Z,95386.00
2023-05-16T10:30:02.069Z,95390.00
2023-05-16T10:31:01.972Z,95388.00
2023-05-16T10:32:03.107Z,95390.00
2023-05-16T10:33:03.109Z,95390.00
2023-05-16T10:34:02.146Z,95388.00
2023-05-16T10:35:02.173Z,95390.00
2023-05-16T10:36:03.231Z,95388.00
2023-05-16T10:37:03.283Z,95390.00
2023-05-16T10:38:04.143Z,95383.00
2023-05-16T10:39:03.499Z,95386.00
2023-05-16T10:40:03.537Z,95386.00
2023-05-16T10:41:03.584Z,95388.00
2023-05-16T10:42:03.611Z,95388.00
2023-05-16T10:43:03.682Z,95390.00
2023-05-16T10:44:04.036Z,95390.00
2023-05-16T10:46:02.870Z,95388.00
2023-05-16T10:47:03.851Z,95388.00
2023-05-16T10:48:03.961Z,95390.00
2023-05-16T10:49:03.921Z,95388.00
2023-05-16T10:50:03.965Z,95388.00
2023-05-16T10:51:03.022Z,95386.00
2023-05-16T10:52:04.081Z,95386.00
2023-05-16T10:53:03.134Z,95388.00
2023-05-16T10:54:04.209Z,95390.00
2023-05-16T10:55:03.249Z,95392.00
2023-05-16T10:56:04.326Z,95392.00
2023-05-16T10:57:04.390Z,95390.00
2023-05-16T10:58:04.426Z,95390.00
2023-05-16T10:59:04.469Z,95392.00
2023-05-16T11:00:04.507Z,95388.00
2023-05-16T11:01:03.568Z,95386.00
2023-05-16T11:02:03.652Z,95390.00
2023-05-16T11:03:05.504Z,95390.00
2023-05-16T11:04:04.896Z,95388.00
2023-05-16T11:05:04.688Z,95392.00
2023-05-16T11:06:04.696Z,95390.00
2023-05-16T11:07:04.751Z,95388.00
2023-05-16T11:08:04.784Z,95388.00
2023-05-16T11:09:03.823Z,95388.00
2023-05-16T11:10:04.845Z,95388.00
2023-05-16T11:11:04.905Z,95390.00
2023-05-16T11:12:04.900Z,95390.00
2023-05-16T11:13:04.872Z,95386.00
2023-05-16T11:14:04.903Z,95390.00
2023-05-16T11:15:04.978Z,95385.00
2023-05-16T11:16:04.976Z,95385.00
2023-05-16T11:17:05.097Z,95388.00
2023-05-16T11:18:04.289Z,95386.00
2023-05-16T11:19:05.235Z,95383.00
2023-05-16T11:20:04.209Z,95383.00
2023-05-16T11:21:04.259Z,95381.00
2023-05-16T11:22:04.308Z,95381.00
2023-05-16T11:23:04.358Z,95383.00
2023-05-16T11:24:04.418Z,95383.00
2023-05-16T11:25:05.490Z,95385.00
2023-05-16T11:26:04.529Z,95381.00
2023-05-16T11:27:05.621Z,95379.00
2023-05-16T11:28:04.648Z,95381.00
2023-05-16T11:29:04.744Z,95379.00
2023-05-16T11:30:05.787Z,95379.00
2023-05-16T11:31:05.875Z,95381.00
2023-05-16T11:32:05.089Z,95375.00
2023-05-16T11:33:05.000Z,95375.00
2023-05-16T11:34:06.065Z,95375.00
2023-05-16T11:35:06.028Z,95377.00
2023-05-16T11:37:05.087Z,95375.00
2023-05-16T11:38:05.067Z,95373.00
2023-05-16T11:39:06.571Z,95375.00
2023-05-16T11:40:05.078Z,95377.00
2023-05-16T11:41:06.051Z,95379.00
2023-05-16T11:42:06.063Z,95377.00
2023-05-16T11:43:07.209Z,95379.00
2023-05-16T11:44:06.039Z,95379.00
2023-05-16T11:45:06.099Z,95381.00
2023-05-16T11:46:05.132Z,95381.00
2023-05-16T11:47:05.305Z,95379.00
2023-05-16T11:48:05.295Z,95381.00
2023-05-16T11:49:05.230Z,95379.00
2023-05-16T11:50:06.410Z,95381.00
2023-05-16T11:51:06.291Z,95379.00
2023-05-16T11:52:06.312Z,95379.00
2023-05-16T11:53:06.332Z,95379.00